createdAt,value
2023-04-24T00:01:22.910Z,97947.66
2023-04-24T00:03:49.814Z,97943.28
2023-04-24T00:06:17.947Z,97938.81
2023-04-24T00:08:44.809Z,97937.84
2023-04-24T00:11:11.781Z,97946.00
2023-04-24T00:13:39.094Z,97951.34
2023-04-24T00:16:06.717Z,97950.63
2023-04-24T00:18:33.786Z,97939.38
2023-04-24T00:21:00.961Z,97928.63
2023-04-24T00:23:28.581Z,97943.97
2023-04-24T00:25:55.484Z,97958.06
2023-04-24T00:28:22.310Z,97958.50
2023-04-24T00:30:49.121Z,97962.06
2023-04-24T00:33:15.994Z,97960.31
2023-04-24T00:35:42.785Z,97969.03
2023-04-24T00:38:09.583Z,97951.19
2023-04-24T00:40:36.447Z,97945.88
2023-04-24T00:43:03.372Z,97943.63
2023-04-24T00:45:32.223Z,97955.56
2023-04-24T00:47:59.530Z,97948.56
2023-04-24T00:50:27.435Z,97952.09
2023-04-24T00:52:54.342Z,97951.03
2023-04-24T00:55:21.394Z,97948.06
2023-04-24T00:57:48.761Z,97946.06
2023-04-24T01:00:18.693Z,97934.66
2023-04-24T01:02:46.863Z,97932.28
2023-04-24T01:05:16.505Z,97933.38
2023-04-24T01:07:46.689Z,97934.44
2023-04-24T01:10:14.923Z,97932.78
2023-04-24T01:12:42.144Z,97924.78
2023-04-24T01:15:10.116Z,97926.28
2023-04-24T01:17:37.106Z,97926.84
2023-04-24T01:20:06.921Z,97919.41
2023-04-24T01:22:35.773Z,97917.28
2023-04-24T01:25:04.542Z,97912.69
2023-04-24T01:27:31.648Z,97912.81
2023-04-24T01:29:58.722Z,97900.19
2023-04-24T01:32:26.720Z,97906.34
2023-04-24T01:34:53.991Z,97912.47
2023-04-24T01:37:20.817Z,97905.38
2023-04-24T01:39:47.702Z,97906.81
2023-04-24T01:42:15.867Z,97892.38
2023-04-24T01:44:43.243Z,97896.91
2023-04-24T01:47:10.208Z,97902.69
2023-04-24T01:49:39.196Z,97897.38
2023-04-24T01:52:07.472Z,97887.22
2023-04-24T01:54:34.377Z,97908.47
2023-04-24T01:57:02.993Z,97910.56
2023-04-24T01:59:31.126Z,97906.78
2023-04-24T02:01:57.959Z,97909.38
2023-04-24T02:04:24.835Z,97907.50
2023-04-24T02:06:52.198Z,97906.91
2023-04-24T02:09:19.046Z,97906.59
2023-04-24T02:11:45.839Z,97900.38
2023-04-24T02:14:12.768Z,97903.94
2023-04-24T02:16:39.676Z,97899.69
2023-04-24T02:19:06.791Z,97904.31
2023-04-24T02:21:33.873Z,97907.03
2023-04-24T02:24:00.935Z,97906.41
2023-04-24T02:26:27.916Z,97904.72
2023-04-24T02:28:54.759Z,97906.88
2023-04-24T02:31:21.592Z,97915.06
2023-04-24T02:33:48.528Z,97902.63
2023-04-24T02:36:15.427Z,97900.50
2023-04-24T02:38:42.338Z,97902.97
2023-04-24T02:41:09.225Z,97906.53
2023-04-24T02:43:36.122Z,97904.78
2023-04-24T02:46:03.019Z,97908.41
2023-04-24T02:48:29.888Z,97909.13
2023-04-24T02:50:56.975Z,97904.41
2023-04-24T02:53:24.310Z,97901.09
2023-04-24T02:55:51.150Z,97915.06
2023-04-24T02:58:18.353Z,97908.28
2023-04-24T03:00:45.189Z,97903.81
2023-04-24T03:03:12.084Z,97905.81
2023-04-24T03:05:39.024Z,97904.91
2023-04-24T03:08:06.014Z,97900.19
2023-04-24T03:10:33.204Z,97911.97
2023-04-24T03:13:00.044Z,97901.94
2023-04-24T03:15:27.494Z,97904.66
2023-04-24T03:17:56.685Z,97912.94
2023-04-24T03:20:24.022Z,97908.34
2023-04-24T03:22:50.809Z,97891.41
2023-04-24T03:25:17.656Z,97902.19
2023-04-24T03:27:44.480Z,97896.97
2023-04-24T03:30:11.620Z,97899.69
2023-04-24T03:32:40.291Z,97893.78
2023-04-24T03:35:09.457Z,97889.06
2023-04-24T03:37:36.375Z,97899.91
2023-04-24T03:40:04.066Z,97903.44
2023-04-24T03:42:30.901Z,97899.53
2023-04-24T03:44:57.741Z,97902.25
2023-04-24T03:47:24.674Z,97897.66
2023-04-24T03:49:52.102Z,97902.72
2023-04-24T03:52:18.990Z,97896.44
2023-04-24T03:54:45.801Z,97898.69
2023-04-24T03:57:12.654Z,97898.84
2023-04-24T03:59:39.568Z,97899.28
2023-04-24T04:02:06.472Z,97891.91
2023-04-24T04:04:33.516Z,97904.97
2023-04-24T04:07:03.858Z,97899.28
2023-04-24T04:09:30.845Z,97899.91
2023-04-24T04:11:57.683Z,97905.56
2023-04-24T04:14:24.542Z,97902.50
2023-04-24T04:16:53.973Z,97916.56
2023-04-24T04:19:21.662Z,97925.19
2023-04-24T04:21:53.122Z,97924.31
2023-04-24T04:24:21.779Z,97917.59
2023-04-24T04:26:48.700Z,97913.09
2023-04-24T04:29:18.449Z,97929.72
2023-04-24T04:31:46.296Z,97925.38
2023-04-24T04:34:13.698Z,97933.41
2023-04-24T04:36:41.745Z,97938.31
2023-04-24T04:39:08.546Z,97947.06
2023-04-24T04:41:38.732Z,97947.97
2023-04-24T04:44:05.638Z,97949.94
2023-04-24T04:46:37.278Z,97967.19
2023-04-24T04:49:04.242Z,97997.75
2023-04-24T04:51:32.067Z,98008.38
2023-04-24T04:53:58.924Z,98014.44
2023-04-24T04:56:25.792Z,98016.53
2023-04-24T04:58:52.642Z,98004.50
2023-04-24T05:01:19.718Z,98029.19
2023-04-24T05:03:46.724Z,98030.66
2023-04-24T05:06:13.667Z,98015.50
2023-04-24T05:08:40.765Z,98020.50
2023-04-24T05:11:07.724Z,98027.88
2023-04-24T05:13:40.854Z,98022.06
2023-04-24T05:16:08.361Z,98020.28
2023-04-24T05:18:35.304Z,98032.97
2023-04-24T05:21:02.413Z,98039.28
2023-04-24T05:23:29.253Z,98046.03
2023-04-24T05:25:56.339Z,98043.97
2023-04-24T05:28:23.166Z,98048.09
2023-04-24T05:30:50.045Z,98058.38
2023-04-24T05:33:16.847Z,98062.66
2023-04-24T05:35:47.447Z,98070.31
2023-04-24T05:38:14.862Z,98069.47
2023-04-24T05:40:41.690Z,98063.44
2023-04-24T05:43:08.531Z,98067.44
2023-04-24T05:45:36.996Z,98079.69
2023-04-24T05:48:04.611Z,98084.38
2023-04-24T05:50:31.586Z,98065.34
2023-04-24T05:52:59.468Z,98103.56
2023-04-24T05:55:26.891Z,98104.19
2023-04-24T05:57:53.965Z,98093.47
2023-04-24T06:00:21.292Z,98111.34
2023-04-24T06:02:48.311Z,98108.75
2023-04-24T06:05:16.035Z,98113.00
2023-04-24T06:07:43.085Z,98115.50
2023-04-24T06:10:11.058Z,98107.91
2023-04-24T06:12:38.402Z,98112.09
2023-04-24T06:15:06.025Z,98119.16
2023-04-24T06:17:33.439Z,98113.94
2023-04-24T06:20:00.334Z,98103.69
2023-04-24T06:22:27.220Z,98112.09
2023-04-24T06:24:54.062Z,98094.53
2023-04-24T06:27:20.887Z,98095.78
2023-04-24T06:29:53.663Z,98108.97
2023-04-24T06:32:21.133Z,98101.88
2023-04-24T06:34:48.074Z,98094.44
2023-04-24T06:37:16.525Z,98099.63
2023-04-24T06:39:43.779Z,98107.09
2023-04-24T06:42:10.846Z,98103.47
2023-04-24T06:44:42.078Z,98070.03
2023-04-24T06:47:10.604Z,98096.69
2023-04-24T06:49:38.452Z,98097.44
2023-04-24T06:52:06.401Z,98101.81
2023-04-24T06:54:33.884Z,98107.69
2023-04-24T06:57:03.375Z,98107.81
2023-04-24T06:59:31.362Z,98104.81
2023-04-24T07:01:58.927Z,98107.50
2023-04-24T07:04:26.321Z,98109.59
2023-04-24T07:06:56.839Z,98104.09
2023-04-24T07:09:24.832Z,98105.53
2023-04-24T07:11:52.687Z,98107.31
2023-04-24T07:14:19.607Z,98106.78
2023-04-24T07:16:46.956Z,98112.72
2023-04-24T07:19:14.867Z,98102.31
2023-04-24T07:21:41.929Z,98103.97
2023-04-24T07:24:11.709Z,98095.47
2023-04-24T07:26:39.704Z,98104.91
2023-04-24T07:29:07.319Z,98090.28
2023-04-24T07:31:34.396Z,98097.75
2023-04-24T07:34:02.805Z,98106.56
2023-04-24T07:36:29.822Z,98109.78
2023-04-24T07:38:57.650Z,98120.59
2023-04-24T07:41:25.358Z,98130.44
2023-04-24T07:43:53.516Z,98137.09
2023-04-24T07:46:20.998Z,98148.00
2023-04-24T07:48:58.640Z,98138.66
2023-04-24T07:51:34.535Z,98151.66
2023-04-24T07:54:01.483Z,98153.41
2023-04-24T07:56:28.331Z,98155.91
2023-04-24T07:58:55.224Z,98159.44
2023-04-24T08:01:22.070Z,98168.56
2023-04-24T08:03:49.191Z,98165.88
2023-04-24T08:06:16.308Z,98162.25
2023-04-24T08:08:43.135Z,98170.22
2023-04-24T08:11:09.956Z,98172.22
2023-04-24T08:13:36.780Z,98170.88
2023-04-24T08:16:03.810Z,98162.13
2023-04-24T08:18:30.860Z,98160.81
2023-04-24T08:21:02.292Z,98156.75
2023-04-24T08:23:30.561Z,98165.06
2023-04-24T08:25:58.286Z,98187.25
2023-04-24T08:28:25.276Z,98180.94
2023-04-24T08:30:55.527Z,98196.41
2023-04-24T08:33:25.819Z,98197.47
2023-04-24T08:35:53.800Z,98205.97
2023-04-24T08:38:20.702Z,98197.25
2023-04-24T08:40:50.510Z,98207.97
2023-04-24T08:43:18.163Z,98201.72
2023-04-24T08:45:45.460Z,98186.66
2023-04-24T08:48:23.377Z,98199.34
2023-04-24T08:50:58.401Z,98212.00
2023-04-24T08:53:27.319Z,98212.28
2023-04-24T08:55:57.720Z,98210.53
2023-04-24T08:58:27.576Z,98207.75
2023-04-24T09:00:58.987Z,98208.91
2023-04-24T09:03:28.541Z,98208.72
2023-04-24T09:05:56.916Z,98203.41
2023-04-24T09:08:27.235Z,98218.25
2023-04-24T09:10:54.319Z,98211.59
2023-04-24T09:13:21.885Z,98218.78
2023-04-24T09:15:49.040Z,98227.41
2023-04-24T09:18:15.944Z,98222.09
2023-04-24T09:21:18.931Z,98222.44
2023-04-24T09:23:45.944Z,98239.44
2023-04-24T09:26:13.454Z,98200.91
2023-04-24T09:28:41.716Z,98228.66
2023-04-24T09:31:14.961Z,98242.59
2023-04-24T09:33:54.851Z,98247.78
2023-04-24T09:36:37.939Z,98262.31
2023-04-24T09:39:16.920Z,98245.91
2023-04-24T09:41:49.199Z,98237.28
2023-04-24T09:44:25.127Z,98263.56
2023-04-24T09:47:01.685Z,98250.47
2023-04-24T09:49:37.722Z,98240.00
2023-04-24T09:52:10.978Z,98241.53
2023-04-24T09:54:39.321Z,98247.25
2023-04-24T09:57:08.610Z,98244.13
2023-04-24T09:59:40.546Z,98244.97
2023-04-24T10:02:19.979Z,98261.19
2023-04-24T10:04:57.837Z,98256.09
2023-04-24T10:07:27.372Z,98249.75
2023-04-24T10:09:55.613Z,98243.41
2023-04-24T10:12:22.887Z,98250.66
2023-04-24T10:14:50.971Z,98243.91
2023-04-24T10:17:18.543Z,98255.22
2023-04-24T10:19:46.978Z,98264.59
2023-04-24T10:22:16.690Z,98280.19
2023-04-24T10:24:45.054Z,98273.97
2023-04-24T10:27:16.205Z,98276.97
2023-04-24T10:29:45.009Z,98280.09
2023-04-24T10:32:12.469Z,98298.59
2023-04-24T10:34:39.569Z,98282.06
2023-04-24T10:37:06.584Z,98272.69
2023-04-24T10:39:34.570Z,98271.13
2023-04-24T10:42:01.720Z,98263.81
2023-04-24T10:44:37.939Z,98274.38
2023-04-24T10:47:05.071Z,98298.28
2023-04-24T10:49:33.074Z,98276.22
2023-04-24T10:52:06.708Z,98272.03
2023-04-24T10:54:46.367Z,98281.56
2023-04-24T10:57:19.203Z,98291.56
2023-04-24T10:59:47.100Z,98297.75
2023-04-24T11:02:18.144Z,98303.94
2023-04-24T11:04:46.366Z,98301.88
2023-04-24T11:07:13.930Z,98299.91
2023-04-24T11:09:44.414Z,98309.94
2023-04-24T11:12:13.889Z,98316.47
2023-04-24T11:15:01.070Z,98319.81
2023-04-24T11:17:38.579Z,98323.56
2023-04-24T11:20:22.939Z,98321.47
2023-04-24T11:22:55.768Z,98321.56
2023-04-24T11:25:26.217Z,98320.78
2023-04-24T11:28:05.649Z,98321.75
2023-04-24T11:30:34.593Z,98325.16
2023-04-24T11:33:05.984Z,98331.00
2023-04-24T11:35:40.641Z,98334.44
2023-04-24T11:38:23.517Z,98335.00
2023-04-24T11:40:53.162Z,98331.03
2023-04-24T11:43:20.861Z,98318.88
2023-04-24T11:45:51.233Z,98338.63
2023-04-24T11:48:23.761Z,98341.94
2023-04-24T11:50:51.487Z,98339.88
2023-04-24T11:53:22.444Z,98348.50
2023-04-24T11:55:49.279Z,98341.63
2023-04-24T11:58:16.153Z,98340.72
2023-04-24T12:00:43.004Z,98365.47
2023-04-24T12:03:12.589Z,98358.41
2023-04-24T12:05:40.666Z,98369.84
2023-04-24T12:08:07.956Z,98370.66
2023-04-24T12:10:36.050Z,98364.94
2023-04-24T12:13:03.102Z,98371.28
2023-04-24T12:15:30.236Z,98373.56
2023-04-24T12:17:58.100Z,98372.31
2023-04-24T12:20:31.449Z,98367.09
2023-04-24T12:23:00.364Z,98369.31
2023-04-24T12:25:39.586Z,98371.06
2023-04-24T12:28:06.574Z,98368.78
2023-04-24T12:30:37.196Z,98382.94
2023-04-24T12:33:04.541Z,98368.59
2023-04-24T12:35:34.472Z,98365.25
2023-04-24T12:38:09.608Z,98362.53
2023-04-24T12:40:36.770Z,98365.97
2023-04-24T12:43:14.527Z,98369.72
2023-04-24T12:45:41.363Z,98375.44
2023-04-24T12:48:08.243Z,98360.88
2023-04-24T12:50:35.237Z,98368.06
2023-04-24T12:53:02.063Z,98359.75
2023-04-24T12:55:28.893Z,98366.28
2023-04-24T12:57:57.062Z,98370.88
2023-04-24T13:00:23.871Z,98369.19
2023-04-24T13:02:51.013Z,98364.63
2023-04-24T13:05:18.099Z,98378.56
2023-04-24T13:07:44.978Z,98376.16
2023-04-24T13:10:14.226Z,98370.44
2023-04-24T13:12:41.632Z,98392.28
2023-04-24T13:15:08.881Z,98383.50
2023-04-24T13:17:35.726Z,98373.97
2023-04-24T13:20:02.555Z,98375.00
2023-04-24T13:22:29.430Z,98363.75
2023-04-24T13:24:57.227Z,98376.63
2023-04-24T13:27:24.060Z,98382.66
2023-04-24T13:29:50.914Z,98390.00
2023-04-24T13:32:18.601Z,98386.47
2023-04-24T13:34:45.565Z,98381.38
2023-04-24T13:37:12.452Z,98380.00
2023-04-24T13:39:39.361Z,98370.13
2023-04-24T13:42:06.257Z,98384.38
2023-04-24T13:44:33.368Z,98374.19
2023-04-24T13:47:00.719Z,98376.81
2023-04-24T13:49:28.640Z,98365.53
2023-04-24T13:51:57.276Z,98367.72
2023-04-24T13:54:27.327Z,98362.50
2023-04-24T13:56:58.331Z,98357.00
2023-04-24T13:59:25.345Z,98367.84
2023-04-24T14:01:52.253Z,98375.00
2023-04-24T14:04:19.456Z,98375.19
2023-04-24T14:06:46.556Z,98374.75
2023-04-24T14:09:13.858Z,98397.59
2023-04-24T14:11:41.540Z,98395.09
2023-04-24T14:14:08.998Z,98400.59
2023-04-24T14:16:36.120Z,98399.84
2023-04-24T14:19:03.006Z,98396.00
2023-04-24T14:21:29.899Z,98392.97
2023-04-24T14:23:56.783Z,98398.38
2023-04-24T14:26:23.624Z,98400.25
2023-04-24T14:28:51.234Z,98384.06
2023-04-24T14:31:19.346Z,98392.06
2023-04-24T14:33:46.890Z,98386.75
2023-04-24T14:36:13.845Z,98380.72
2023-04-24T14:38:40.706Z,98391.75
2023-04-24T14:41:13.908Z,98391.66
2023-04-24T14:43:41.421Z,98392.97
2023-04-24T14:46:08.303Z,98426.03
2023-04-24T14:48:35.235Z,98424.06
2023-04-24T14:51:02.052Z,98435.34
2023-04-24T14:53:28.879Z,98405.03
2023-04-24T14:55:55.746Z,98408.53
2023-04-24T14:58:22.900Z,98402.50
2023-04-24T15:00:52.815Z,98405.41
2023-04-24T15:03:21.679Z,98407.50
2023-04-24T15:05:48.811Z,98402.31
2023-04-24T15:08:15.917Z,98389.41
2023-04-24T15:10:43.088Z,98388.59
2023-04-24T15:13:09.958Z,98391.22
2023-04-24T15:15:37.803Z,98388.41
2023-04-24T15:18:06.509Z,98398.47
2023-04-24T15:20:33.394Z,98390.22
2023-04-24T15:23:01.364Z,98383.53
2023-04-24T15:25:28.312Z,98375.00
2023-04-24T15:27:55.207Z,98387.19
2023-04-24T15:30:22.053Z,98386.47
2023-04-24T15:32:48.927Z,98382.00
2023-04-24T15:35:17.015Z,98383.59
2023-04-24T15:37:44.120Z,98383.59
2023-04-24T15:40:14.145Z,98360.84
2023-04-24T15:42:41.468Z,98375.28
2023-04-24T15:45:09.428Z,98372.91
2023-04-24T15:47:36.552Z,98365.84
2023-04-24T15:50:09.349Z,98376.25
2023-04-24T15:52:36.708Z,98373.13
2023-04-24T15:55:05.849Z,98381.81
2023-04-24T15:57:32.808Z,98404.28
2023-04-24T16:00:00.338Z,98418.19
2023-04-24T16:02:27.601Z,98414.88
2023-04-24T16:04:54.938Z,98412.53
2023-04-24T16:07:21.891Z,98398.00
2023-04-24T16:09:48.759Z,98389.31
2023-04-24T16:12:15.905Z,98400.66
2023-04-24T16:14:42.809Z,98391.75
2023-04-24T16:17:09.728Z,98380.94
2023-04-24T16:19:36.660Z,98373.03
2023-04-24T16:22:04.678Z,98375.91
2023-04-24T16:24:31.504Z,98374.03
2023-04-24T16:26:58.384Z,98371.88
2023-04-24T16:29:25.239Z,98368.84
2023-04-24T16:31:52.571Z,98367.91
2023-04-24T16:34:19.629Z,98363.34
2023-04-24T16:36:46.619Z,98364.78
2023-04-24T16:39:13.659Z,98365.00
2023-04-24T16:41:40.547Z,98350.78
2023-04-24T16:44:07.452Z,98360.22
2023-04-24T16:46:34.990Z,98358.16
2023-04-24T16:49:01.890Z,98349.66
2023-04-24T16:51:29.030Z,98349.66
2023-04-24T16:53:56.077Z,98354.22
2023-04-24T16:56:23.046Z,98356.94
2023-04-24T16:58:50.771Z,98355.56
2023-04-24T17:01:17.995Z,98353.59
2023-04-24T17:03:45.165Z,98346.25
2023-04-24T17:06:12.720Z,98349.84
2023-04-24T17:08:39.617Z,98352.34
2023-04-24T17:11:06.499Z,98345.91
2023-04-24T17:13:33.845Z,98353.09
2023-04-24T17:16:00.914Z,98354.31
2023-04-24T17:18:27.790Z,98348.00
2023-04-24T17:20:54.685Z,98347.03
2023-04-24T17:23:21.676Z,98343.81
2023-04-24T17:25:49.327Z,98358.06
2023-04-24T17:28:32.390Z,98351.75
2023-04-24T17:30:59.972Z,98347.06
2023-04-24T17:33:31.032Z,98348.19
2023-04-24T17:35:58.937Z,98350.91
2023-04-24T17:38:25.835Z,98346.53
2023-04-24T17:40:53.004Z,98344.88
2023-04-24T17:43:23.907Z,98352.16
2023-04-24T17:45:55.900Z,98354.97
2023-04-24T17:48:22.844Z,98349.44
2023-04-24T17:50:49.853Z,98353.59
2023-04-24T17:53:18.775Z,98362.75
2023-04-24T17:55:48.882Z,98357.22
2023-04-24T17:58:15.891Z,98360.56
2023-04-24T18:00:42.745Z,98360.47
2023-04-24T18:03:10.590Z,98357.34
2023-04-24T18:05:38.989Z,98359.03
2023-04-24T18:08:06.617Z,98366.09
2023-04-24T18:10:37.727Z,98355.47
2023-04-24T18:13:05.697Z,98357.34
2023-04-24T18:15:32.726Z,98367.72
2023-04-24T18:17:59.819Z,98367.84
2023-04-24T18:20:27.229Z,98364.00
2023-04-24T18:22:54.542Z,98367.97
2023-04-24T18:25:26.577Z,98368.78
2023-04-24T18:27:55.716Z,98375.75
2023-04-24T18:30:24.065Z,98381.06
2023-04-24T18:32:53.265Z,98387.41
2023-04-24T18:35:21.274Z,98392.72
2023-04-24T18:37:48.198Z,98394.66
2023-04-24T18:40:15.751Z,98391.34
2023-04-24T18:42:43.038Z,98387.50
2023-04-24T18:45:13.869Z,98382.69
2023-04-24T18:47:41.829Z,98395.00
2023-04-24T18:50:09.382Z,98395.63
2023-04-24T18:52:36.297Z,98398.50
2023-04-24T18:55:04.723Z,98387.91
2023-04-24T18:57:31.602Z,98401.34
2023-04-24T18:59:58.551Z,98404.66
2023-04-24T19:02:25.564Z,98405.59
2023-04-24T19:04:52.501Z,98400.81
2023-04-24T19:07:19.832Z,98410.91
2023-04-24T19:09:46.649Z,98411.81
2023-04-24T19:12:13.594Z,98412.66
2023-04-24T19:14:40.437Z,98424.00
2023-04-24T19:17:09.962Z,98420.78
2023-04-24T19:19:37.032Z,98434.25
2023-04-24T19:22:04.608Z,98435.19
2023-04-24T19:24:33.616Z,98427.78
2023-04-24T19:27:01.476Z,98444.09
2023-04-24T19:29:28.278Z,98446.22
2023-04-24T19:31:57.662Z,98458.44
2023-04-24T19:34:26.168Z,98446.56
2023-04-24T19:36:53.174Z,98446.56
2023-04-24T19:39:20.033Z,98454.88
2023-04-24T19:41:46.843Z,98453.81
2023-04-24T19:44:15.325Z,98447.72
2023-04-24T19:46:42.319Z,98455.06
2023-04-24T19:49:09.355Z,98453.94
2023-04-24T19:51:36.200Z,98453.56
2023-04-24T19:54:05.379Z,98446.31
2023-04-24T19:56:32.755Z,98453.16
2023-04-24T19:58:59.643Z,98453.91
2023-04-24T20:01:26.526Z,98458.16
2023-04-24T20:03:53.514Z,98442.78
2023-04-24T20:06:20.439Z,98439.81
2023-04-24T20:08:47.423Z,98451.50
2023-04-24T20:11:15.050Z,98421.50
2023-04-24T20:13:42.002Z,98456.50
2023-04-24T20:16:11.338Z,98452.16
2023-04-24T20:18:38.798Z,98451.22
2023-04-24T20:21:05.770Z,98455.41
2023-04-24T20:23:32.748Z,98460.41
2023-04-24T20:25:59.730Z,98456.06
2023-04-24T20:28:28.264Z,98454.13
2023-04-24T20:30:55.252Z,98453.84
2023-04-24T20:33:22.453Z,98451.44
2023-04-24T20:35:49.711Z,98450.69
2023-04-24T20:38:18.515Z,98452.84
2023-04-24T20:43:20.344Z,98452.28
2023-04-24T20:45:49.576Z,98443.75
2023-04-24T20:48:16.504Z,98448.94
2023-04-24T20:50:44.410Z,98443.84
2023-04-24T20:53:11.302Z,98448.78
2023-04-24T20:55:38.319Z,98447.56
2023-04-24T20:58:05.564Z,98443.09
2023-04-24T21:00:32.513Z,98438.56
2023-04-24T21:02:59.557Z,98447.66
2023-04-24T21:05:26.755Z,98444.22
2023-04-24T21:07:56.033Z,98448.59
2023-04-24T21:10:26.404Z,98444.31
2023-04-24T21:12:53.458Z,98442.56
2023-04-24T21:15:20.321Z,98445.16
2023-04-24T21:17:47.304Z,98446.19
2023-04-24T21:20:14.218Z,98437.66
2023-04-24T21:22:41.187Z,98439.50
2023-04-24T21:25:08.640Z,98436.19
2023-04-24T21:27:36.529Z,98429.34
2023-04-24T21:30:07.798Z,98427.56
2023-04-24T21:32:34.790Z,98419.22
2023-04-24T21:35:01.788Z,98422.66
2023-04-24T21:37:28.710Z,98417.66
2023-04-24T21:39:55.620Z,98418.78
2023-04-24T21:42:22.573Z,98412.75
2023-04-24T21:44:49.531Z,98408.59
2023-04-24T21:47:16.491Z,98414.88
2023-04-24T21:49:43.397Z,98414.25
2023-04-24T21:52:10.206Z,98410.44
2023-04-24T21:54:37.004Z,98413.13
2023-04-24T21:57:04.024Z,98411.59
2023-04-24T21:59:31.023Z,98408.25
2023-04-24T22:01:58.003Z,98401.38
2023-04-24T22:04:25.602Z,98394.63
2023-04-24T22:06:53.352Z,98391.47
2023-04-24T22:09:20.380Z,98391.47
2023-04-24T22:11:47.842Z,98388.16
2023-04-24T22:14:15.052Z,98380.47
2023-04-24T22:16:42.128Z,98382.22
2023-04-24T22:19:10.734Z,98382.31
2023-04-24T22:21:39.357Z,98385.53
2023-04-24T22:24:07.132Z,98380.09
2023-04-24T22:26:34.196Z,98386.00
2023-04-24T22:29:01.278Z,98381.19
2023-04-24T22:31:28.120Z,98377.50
2023-04-24T22:33:55.730Z,98374.34
2023-04-24T22:36:22.535Z,98374.97
2023-04-24T22:38:49.577Z,98374.97
2023-04-24T22:41:16.468Z,98371.03
2023-04-24T22:43:43.383Z,98365.84
2023-04-24T22:46:10.290Z,98363.41
2023-04-24T22:48:37.180Z,98365.84
2023-04-24T22:51:04.136Z,98366.56
2023-04-24T22:53:31.230Z,98363.97
2023-04-24T22:55:58.110Z,98360.66
2023-04-24T22:58:25.231Z,98357.13
2023-04-24T23:00:52.111Z,98358.16
2023-04-24T23:03:19.180Z,98349.44
2023-04-24T23:05:46.197Z,98349.53
2023-04-24T23:08:13.087Z,98352.22
2023-04-24T23:10:40.017Z,98352.13
2023-04-24T23:13:06.966Z,98349.63
2023-04-24T23:15:34.717Z,98345.81
2023-04-24T23:18:01.721Z,98352.75
2023-04-24T23:20:28.720Z,98352.50
2023-04-24T23:22:55.897Z,98355.81
2023-04-24T23:25:22.753Z,98350.63
2023-04-24T23:27:49.581Z,98353.22
2023-04-24T23:30:16.429Z,98346.41
2023-04-24T23:32:44.251Z,98344.00
2023-04-24T23:35:11.847Z,98355.34
2023-04-24T23:37:39.012Z,98353.84
2023-04-24T23:40:10.367Z,98357.88
2023-04-24T23:42:37.204Z,98357.09
2023-04-24T23:45:04.932Z,98355.63
2023-04-24T23:47:31.891Z,98361.53
2023-04-24T23:49:58.744Z,98364.22
2023-04-24T23:52:25.603Z,98353.84
2023-04-24T23:54:52.477Z,98362.38
2023-04-24T23:57:19.568Z,98348.66
2023-04-24T23:59:46.413Z,98353.75
